createdAt,value
2019-02-17T00:01:45.095Z,27.37
2019-02-17T00:04:17.481Z,31.23
2019-02-17T00:06:49.896Z,22.67
2019-02-17T00:09:22.275Z,27.23
2019-02-17T00:11:54.722Z,29.60
2019-02-17T00:14:27.107Z,24.37
2019-02-17T00:16:59.514Z,26.57
2019-02-17T00:19:32.986Z,26.70
2019-02-17T00:22:05.430Z,26.97
2019-02-17T00:24:37.812Z,26.77
2019-02-17T00:27:10.243Z,27.97
2019-02-17T00:29:42.765Z,24.03
2019-02-17T00:32:15.171Z,24.47
2019-02-17T00:34:47.605Z,26.20
2019-02-17T00:37:19.985Z,25.13
2019-02-17T00:39:52.409Z,26.13
2019-02-17T00:42:24.801Z,25.53
2019-02-17T00:44:57.225Z,23.20
2019-02-17T00:47:29.628Z,21.70
2019-02-17T00:50:02.031Z,26.90
2019-02-17T00:52:34.491Z,26.17
2019-02-17T00:55:06.968Z,26.03
2019-02-17T00:57:39.355Z,27.53
2019-02-17T01:00:12.436Z,25.13
2019-02-17T01:02:45.301Z,25.13
2019-02-17T01:05:18.789Z,26.30
2019-02-17T01:07:51.243Z,24.70
2019-02-17T01:10:23.645Z,22.10
2019-02-17T01:12:56.034Z,23.37
2019-02-17T01:15:28.446Z,25.07
2019-02-17T01:18:00.909Z,19.87
2019-02-17T01:20:34.881Z,24.30
2019-02-17T01:23:07.288Z,25.37
2019-02-17T01:25:39.693Z,20.47
2019-02-17T01:28:12.073Z,20.07
2019-02-17T01:30:44.481Z,22.67
2019-02-17T01:33:16.884Z,24.13
2019-02-17T01:35:49.288Z,31.50
2019-02-17T01:38:21.680Z,24.10
2019-02-17T01:40:54.100Z,29.97
2019-02-17T01:43:26.476Z,25.57
2019-02-17T01:45:58.907Z,25.27
2019-02-17T01:48:31.332Z,25.00
2019-02-17T01:51:03.786Z,22.93
2019-02-17T01:53:36.214Z,22.77
2019-02-17T01:56:08.602Z,24.07
2019-02-17T01:58:40.925Z,25.70
2019-02-17T02:01:13.340Z,24.77
2019-02-17T02:03:45.819Z,26.27
2019-02-17T02:06:18.243Z,28.17
2019-02-17T02:08:50.632Z,23.47
2019-02-17T02:11:23.043Z,23.37
2019-02-17T02:13:55.452Z,21.07
2019-02-17T02:16:27.868Z,23.57
2019-02-17T02:19:00.268Z,24.53
2019-02-17T02:21:32.904Z,20.33
2019-02-17T02:24:05.306Z,19.77
2019-02-17T02:26:37.702Z,22.90
2019-02-17T02:29:10.152Z,32.17
2019-02-17T02:31:42.557Z,22.60
2019-02-17T02:34:14.944Z,24.47
2019-02-17T02:36:47.346Z,19.60
2019-02-17T02:39:19.771Z,19.97
2019-02-17T02:41:52.176Z,20.33
2019-02-17T02:44:24.577Z,20.07
2019-02-17T02:46:57.000Z,21.57
2019-02-17T02:49:29.510Z,18.67
2019-02-17T02:52:01.914Z,19.67
2019-02-17T02:54:35.296Z,19.30
2019-02-17T02:57:07.813Z,21.70
2019-02-17T02:59:50.101Z,19.57
2019-02-17T03:02:14.663Z,17.00
2019-02-17T03:04:47.138Z,21.27
2019-02-17T03:07:21.438Z,22.33
2019-02-17T03:09:53.864Z,22.33
2019-02-17T03:12:26.282Z,22.80
2019-02-17T03:14:58.701Z,19.67
2019-02-17T03:17:31.051Z,23.00
2019-02-17T03:20:03.579Z,18.37
2019-02-17T03:22:36.016Z,22.70
2019-02-17T03:25:08.435Z,22.33
2019-02-17T03:27:40.847Z,22.43
2019-02-17T03:30:13.510Z,24.60
2019-02-17T03:32:47.001Z,21.40
2019-02-17T03:35:19.379Z,22.47
2019-02-17T03:37:51.723Z,23.03
2019-02-17T03:40:24.096Z,22.03
2019-02-17T03:42:56.524Z,19.80
2019-02-17T03:45:28.921Z,23.67
2019-02-17T03:48:01.339Z,21.67
2019-02-17T03:50:33.735Z,18.80
2019-02-17T03:53:06.251Z,20.60
2019-02-17T03:55:38.634Z,20.20
2019-02-17T03:58:10.981Z,23.43
2019-02-17T04:00:43.358Z,20.00
2019-02-17T04:03:15.760Z,16.73
2019-02-17T04:05:48.221Z,23.00
2019-02-17T04:08:20.584Z,21.63
2019-02-17T04:10:52.976Z,20.30
2019-02-17T04:13:25.387Z,25.00
2019-02-17T04:15:57.700Z,25.10
2019-02-17T04:18:30.031Z,21.10
2019-02-17T04:21:02.421Z,20.13
2019-02-17T04:23:34.859Z,24.23
2019-02-17T04:26:07.180Z,23.20
2019-02-17T04:28:39.633Z,24.80
2019-02-17T04:31:11.979Z,22.33
2019-02-17T04:33:44.388Z,22.07
2019-02-17T04:36:16.783Z,20.40
2019-02-17T04:38:49.252Z,17.50
2019-02-17T04:41:21.665Z,20.13
2019-02-17T04:43:53.996Z,20.87
2019-02-17T04:46:26.387Z,20.53
2019-02-17T04:48:58.799Z,21.17
2019-02-17T04:51:31.118Z,18.80
2019-02-17T04:54:03.605Z,22.17
2019-02-17T04:56:35.993Z,21.70
2019-02-17T04:59:08.429Z,18.37
2019-02-17T05:01:40.824Z,15.83
2019-02-17T05:04:13.231Z,18.63
2019-02-17T05:06:45.614Z,18.30
2019-02-17T05:09:18.098Z,20.17
2019-02-17T05:11:50.501Z,21.20
2019-02-17T05:14:22.960Z,17.57
2019-02-17T05:17:04.537Z,19.17
2019-02-17T05:19:38.055Z,17.10
2019-02-17T05:22:10.449Z,17.27
2019-02-17T05:24:42.856Z,16.70
2019-02-17T05:27:18.299Z,16.30
2019-02-17T05:29:53.870Z,15.67
2019-02-17T05:32:26.214Z,16.30
2019-02-17T05:34:59.166Z,15.63
2019-02-17T05:37:31.604Z,16.87
2019-02-17T05:40:04.231Z,15.43
2019-02-17T05:42:36.635Z,19.57
2019-02-17T05:45:09.147Z,17.03
2019-02-17T05:47:41.538Z,18.10
2019-02-17T05:50:13.978Z,14.03
2019-02-17T05:52:46.427Z,14.53
2019-02-17T05:55:18.863Z,14.70
2019-02-17T05:57:51.272Z,19.10
2019-02-17T06:00:27.887Z,17.37
2019-02-17T06:03:00.288Z,14.10
2019-02-17T06:05:33.410Z,16.40
2019-02-17T06:08:05.792Z,21.50
2019-02-17T06:10:38.375Z,16.90
2019-02-17T06:13:10.767Z,15.13
2019-02-17T06:15:43.189Z,19.47
2019-02-17T06:18:15.643Z,18.40
2019-02-17T06:20:48.047Z,20.97
2019-02-17T06:23:20.464Z,17.40
2019-02-17T06:25:52.932Z,15.77
2019-02-17T06:28:25.349Z,23.47
2019-02-17T06:30:57.764Z,19.37
2019-02-17T06:33:30.145Z,17.17
2019-02-17T06:36:02.546Z,16.17
2019-02-17T06:38:34.912Z,18.53
2019-02-17T06:41:07.390Z,17.43
2019-02-17T06:43:39.759Z,22.10
2019-02-17T06:46:14.804Z,20.73
2019-02-17T06:48:47.169Z,17.83
2019-02-17T06:51:19.589Z,18.43
2019-02-17T06:53:51.969Z,15.03
2019-02-17T06:56:47.239Z,18.17
2019-02-17T06:59:19.616Z,18.10
2019-02-17T07:01:52.023Z,19.47
2019-02-17T07:04:39.765Z,18.57
2019-02-17T07:07:12.274Z,20.00
2019-02-17T07:09:44.767Z,20.70
2019-02-17T07:12:17.159Z,19.50
2019-02-17T07:14:49.537Z,18.60
2019-02-17T07:17:23.372Z,18.87
2019-02-17T07:19:55.758Z,18.97
2019-02-17T07:22:28.188Z,18.37
2019-02-17T07:25:01.523Z,23.70
2019-02-17T07:27:33.935Z,20.77
2019-02-17T07:30:06.575Z,22.23
2019-02-17T07:32:38.981Z,17.23
2019-02-17T07:35:11.371Z,23.60
2019-02-17T07:37:43.781Z,20.17
2019-02-17T07:40:18.396Z,18.03
2019-02-17T07:42:50.829Z,20.30
2019-02-17T07:45:23.211Z,19.80
2019-02-17T07:47:55.685Z,19.43
2019-02-17T07:50:28.076Z,19.63
2019-02-17T07:53:00.478Z,19.07
2019-02-17T07:55:32.965Z,19.63
2019-02-17T07:58:05.381Z,19.80
2019-02-17T08:00:37.782Z,18.87
2019-02-17T08:03:10.288Z,16.67
2019-02-17T08:05:42.691Z,15.07
2019-02-17T08:08:15.108Z,23.80
2019-02-17T08:10:47.502Z,14.90
2019-02-17T08:15:50.329Z,16.10
2019-02-17T08:18:22.749Z,12.17
2019-02-17T08:20:55.127Z,18.23
2019-02-17T08:23:27.777Z,15.63
2019-02-17T08:26:00.169Z,16.63
2019-02-17T08:28:34.419Z,16.13
2019-02-17T08:31:06.824Z,18.80
2019-02-17T08:33:39.232Z,18.83
2019-02-17T08:36:11.734Z,15.43
2019-02-17T08:38:44.295Z,17.60
2019-02-17T08:41:16.688Z,17.33
2019-02-17T08:43:49.200Z,17.50
2019-02-17T08:46:21.586Z,15.70
2019-02-17T08:48:54.003Z,14.63
2019-02-17T08:51:26.391Z,15.63
2019-02-17T08:53:58.874Z,14.27
2019-02-17T08:56:31.563Z,16.23
2019-02-17T08:59:04.077Z,16.10
2019-02-17T09:01:36.466Z,14.83
2019-02-17T09:04:08.881Z,14.33
2019-02-17T09:06:41.307Z,13.07
2019-02-17T09:09:13.707Z,11.80
2019-02-17T09:11:46.140Z,14.80
2019-02-17T09:14:18.537Z,15.23
2019-02-17T09:16:50.967Z,16.13
2019-02-17T09:19:23.430Z,15.07
2019-02-17T09:21:55.836Z,12.33
2019-02-17T09:24:28.263Z,13.03
2019-02-17T09:27:00.778Z,13.63
2019-02-17T09:29:33.170Z,13.47
2019-02-17T09:32:15.737Z,13.30
2019-02-17T09:34:39.681Z,15.70
2019-02-17T09:37:12.103Z,15.27
2019-02-17T09:39:44.523Z,14.40
2019-02-17T09:42:16.997Z,14.33
2019-02-17T09:44:49.395Z,12.53
2019-02-17T09:47:21.821Z,12.27
2019-02-17T09:49:54.218Z,13.77
2019-02-17T09:52:26.631Z,14.47
2019-02-17T09:54:59.028Z,14.10
2019-02-17T09:57:31.439Z,12.40
2019-02-17T10:00:04.079Z,13.30
2019-02-17T10:02:36.505Z,11.57
2019-02-17T10:05:09.075Z,13.87
2019-02-17T10:07:41.611Z,13.83
2019-02-17T10:10:14.990Z,12.73
2019-02-17T10:12:47.799Z,14.50
2019-02-17T10:15:20.456Z,16.27
2019-02-17T10:17:52.872Z,17.60
2019-02-17T10:20:25.260Z,14.50
2019-02-17T10:22:57.693Z,15.87
2019-02-17T10:25:30.086Z,15.33
2019-02-17T10:28:02.509Z,14.57
2019-02-17T10:30:36.006Z,15.57
2019-02-17T10:33:08.513Z,16.57
2019-02-17T10:35:40.902Z,16.50
2019-02-17T10:38:13.318Z,17.73
2019-02-17T10:40:45.739Z,17.60
2019-02-17T10:43:18.177Z,16.67
2019-02-17T10:45:50.544Z,15.77
2019-02-17T10:48:22.954Z,19.10
2019-02-17T10:50:55.354Z,16.67
2019-02-17T10:53:27.757Z,16.73
2019-02-17T10:56:00.151Z,21.63
2019-02-17T10:58:32.569Z,17.90
2019-02-17T11:01:05.075Z,19.00
2019-02-17T11:03:37.488Z,18.47
2019-02-17T11:06:09.885Z,18.30
2019-02-17T11:08:42.303Z,17.80
2019-02-17T11:11:14.701Z,19.57
2019-02-17T11:13:47.132Z,17.63
2019-02-17T11:16:19.539Z,18.30
2019-02-17T11:18:52.032Z,19.83
2019-02-17T11:21:24.453Z,19.23
2019-02-17T11:23:56.972Z,17.77
2019-02-17T11:26:29.378Z,21.07
2019-02-17T11:29:01.799Z,17.20
2019-02-17T11:31:34.193Z,19.80
2019-02-17T11:34:06.630Z,17.57
2019-02-17T11:36:39.023Z,17.83
2019-02-17T11:39:21.083Z,18.07
2019-02-17T11:41:53.480Z,18.47
2019-02-17T11:44:25.901Z,17.57
2019-02-17T11:46:58.287Z,18.57
2019-02-17T11:49:30.717Z,18.97
2019-02-17T11:52:03.120Z,16.70
2019-02-17T11:54:35.546Z,17.00
2019-02-17T11:57:07.939Z,20.20
2019-02-17T11:59:40.369Z,17.60
2019-02-17T12:02:12.692Z,17.73
2019-02-17T12:04:45.103Z,19.10
2019-02-17T12:07:17.489Z,22.53
2019-02-17T12:09:49.904Z,21.80
2019-02-17T12:12:22.292Z,14.77
2019-02-17T12:14:54.747Z,18.87
2019-02-17T12:17:27.136Z,16.93
2019-02-17T12:20:14.306Z,16.03
2019-02-17T12:22:51.058Z,14.73
2019-02-17T12:25:28.681Z,12.47
2019-02-17T12:28:07.679Z,11.63
2019-02-17T12:30:41.365Z,12.57
2019-02-17T12:33:19.346Z,12.27
2019-02-17T12:35:48.004Z,12.13
2019-02-17T12:38:20.444Z,11.40
2019-02-17T12:40:52.873Z,11.30
2019-02-17T12:43:25.274Z,12.00
2019-02-17T12:45:57.692Z,13.57
2019-02-17T12:48:30.075Z,14.47
2019-02-17T12:51:03.564Z,14.50
2019-02-17T12:53:35.963Z,13.17
2019-02-17T12:56:08.390Z,11.33
2019-02-17T12:58:40.780Z,10.70
2019-02-17T13:01:13.627Z,12.10
2019-02-17T13:03:46.085Z,13.43
2019-02-17T13:06:18.509Z,13.00
2019-02-17T13:08:50.925Z,10.87
2019-02-17T13:11:23.339Z,13.33
2019-02-17T13:13:55.745Z,12.47
2019-02-17T13:16:28.159Z,10.80
2019-02-17T13:19:00.508Z,10.80
2019-02-17T13:21:32.927Z,11.40
2019-02-17T13:24:05.343Z,9.87
2019-02-17T13:26:37.753Z,9.47
2019-02-17T13:29:10.148Z,10.47
2019-02-17T13:31:42.557Z,9.33
2019-02-17T13:34:14.941Z,15.37
2019-02-17T13:36:47.355Z,12.17
2019-02-17T13:39:19.743Z,10.90
2019-02-17T13:41:52.149Z,9.97
2019-02-17T13:44:24.525Z,10.03
2019-02-17T13:46:56.942Z,10.53
2019-02-17T13:49:29.326Z,10.27
2019-02-17T13:52:01.738Z,9.60
2019-02-17T13:54:34.120Z,8.63
2019-02-17T13:57:06.541Z,10.17
2019-02-17T13:59:38.927Z,11.53
2019-02-17T14:02:11.331Z,11.07
2019-02-17T14:04:43.824Z,9.83
2019-02-17T14:07:16.235Z,10.07
2019-02-17T14:09:48.617Z,10.37
2019-02-17T14:12:21.037Z,12.13
2019-02-17T14:14:53.442Z,11.27
2019-02-17T14:17:25.862Z,11.33
2019-02-17T14:19:58.238Z,9.77
2019-02-17T14:22:30.648Z,11.53
2019-02-17T14:25:03.071Z,12.97
2019-02-17T14:27:35.475Z,8.70
2019-02-17T14:30:10.043Z,13.07
2019-02-17T14:32:42.393Z,12.03
2019-02-17T14:35:14.830Z,8.40
2019-02-17T14:37:47.218Z,9.47
2019-02-17T14:40:19.598Z,10.27
2019-02-17T14:42:52.074Z,19.63
2019-02-17T14:45:24.462Z,10.53
2019-02-17T14:47:56.869Z,9.80
2019-02-17T14:50:29.243Z,7.50
2019-02-17T14:53:01.659Z,8.70
2019-02-17T14:55:34.039Z,11.40
2019-02-17T14:58:06.450Z,15.33
2019-02-17T15:00:38.930Z,6.73
2019-02-17T15:03:11.262Z,6.77
2019-02-17T15:05:43.638Z,7.43
2019-02-17T15:08:16.033Z,6.43
2019-02-17T15:10:48.409Z,5.83
2019-02-17T15:13:24.540Z,6.20
2019-02-17T15:15:54.875Z,6.77
2019-02-17T15:18:27.269Z,7.17
2019-02-17T15:20:59.656Z,7.47
2019-02-17T15:23:32.055Z,7.93
2019-02-17T15:26:04.451Z,9.23
2019-02-17T15:28:36.851Z,7.60
2019-02-17T15:31:09.240Z,8.63
2019-02-17T15:33:41.633Z,7.27
2019-02-17T15:36:14.009Z,9.97
2019-02-17T15:38:46.399Z,7.80
2019-02-17T15:41:18.771Z,8.13
2019-02-17T15:43:51.165Z,8.17
2019-02-17T15:46:23.539Z,6.67
2019-02-17T15:48:55.937Z,7.17
2019-02-17T15:51:28.324Z,7.57
2019-02-17T15:54:00.725Z,6.03
2019-02-17T15:56:33.101Z,6.67
2019-02-17T15:59:05.503Z,6.13
2019-02-17T16:01:37.887Z,6.60
2019-02-17T16:04:10.368Z,7.17
2019-02-17T16:06:42.743Z,7.17
2019-02-17T16:09:15.138Z,6.67
2019-02-17T16:11:47.518Z,6.63
2019-02-17T16:14:19.921Z,8.57
2019-02-17T16:16:52.290Z,7.63
2019-02-17T16:19:24.695Z,8.77
2019-02-17T16:21:57.078Z,11.67
2019-02-17T16:24:29.799Z,8.07
2019-02-17T16:27:02.173Z,5.60
2019-02-17T16:29:34.599Z,6.70
2019-02-17T16:32:06.966Z,6.30
2019-02-17T16:34:39.369Z,5.83
2019-02-17T16:37:11.745Z,6.07
2019-02-17T16:39:44.155Z,7.57
2019-02-17T16:42:16.492Z,9.30
2019-02-17T16:44:48.884Z,6.77
2019-02-17T16:47:21.259Z,6.07
2019-02-17T16:49:53.723Z,5.77
2019-02-17T16:52:26.303Z,7.40
2019-02-17T16:54:58.840Z,6.90
2019-02-17T16:57:31.220Z,7.67
2019-02-17T17:00:03.656Z,5.13
2019-02-17T17:02:36.133Z,6.20
2019-02-17T17:05:10.116Z,5.40
2019-02-17T17:07:42.596Z,4.20
2019-02-17T17:10:15.149Z,5.60
2019-02-17T17:12:47.594Z,5.63
2019-02-17T17:15:19.993Z,5.47
2019-02-17T17:17:52.369Z,5.60
2019-02-17T17:20:24.769Z,6.77
2019-02-17T17:22:57.314Z,6.67
2019-02-17T17:25:29.756Z,6.50
2019-02-17T17:28:02.122Z,7.90
2019-02-17T17:30:35.737Z,7.50
2019-02-17T17:33:08.186Z,8.13
2019-02-17T17:35:40.700Z,10.00
2019-02-17T17:38:13.105Z,8.13
2019-02-17T17:40:45.560Z,8.77
2019-02-17T17:43:17.934Z,8.03
2019-02-17T17:45:51.984Z,10.63
2019-02-17T17:48:24.633Z,9.10
2019-02-17T17:50:57.045Z,8.27
2019-02-17T17:53:29.425Z,9.53
2019-02-17T17:56:01.821Z,7.03
2019-02-17T17:58:34.468Z,8.33
2019-02-17T18:01:07.863Z,8.40
2019-02-17T18:03:40.477Z,9.03
2019-02-17T18:06:12.886Z,9.50
2019-02-17T18:08:45.268Z,10.17
2019-02-17T18:11:17.680Z,11.63
2019-02-17T18:13:50.057Z,11.93
2019-02-17T18:16:22.455Z,11.60
2019-02-17T18:18:54.847Z,11.03
2019-02-17T18:21:27.322Z,10.63
2019-02-17T18:23:59.812Z,13.57
2019-02-17T18:26:32.209Z,13.73
2019-02-17T18:29:04.670Z,12.87
2019-02-17T18:31:39.796Z,13.37
2019-02-17T18:34:12.186Z,14.30
2019-02-17T18:36:44.603Z,14.30
2019-02-17T18:39:16.984Z,15.00
2019-02-17T18:41:49.430Z,17.97
2019-02-17T18:44:21.823Z,15.53
2019-02-17T18:46:54.269Z,16.70
2019-02-17T18:49:26.656Z,18.20
2019-02-17T18:51:59.143Z,20.70
2019-02-17T18:54:31.567Z,15.83
2019-02-17T18:57:08.226Z,16.87
2019-02-17T18:59:38.061Z,17.33
2019-02-17T19:02:10.471Z,18.30
2019-02-17T19:04:42.996Z,19.27
2019-02-17T19:07:15.443Z,16.13
2019-02-17T19:09:48.044Z,19.77
2019-02-17T19:12:20.355Z,19.97
2019-02-17T19:14:52.740Z,15.93
2019-02-17T19:17:26.530Z,17.70
2019-02-17T19:19:58.915Z,23.37
2019-02-17T19:22:32.827Z,16.30
2019-02-17T19:25:05.682Z,23.17
2019-02-17T19:27:38.097Z,23.03
2019-02-17T19:30:12.667Z,22.13
2019-02-17T19:32:46.259Z,23.20
2019-02-17T19:35:18.664Z,21.53
2019-02-17T19:37:51.077Z,21.40
2019-02-17T19:40:23.479Z,19.97
2019-02-17T19:42:55.884Z,18.77
2019-02-17T19:45:28.254Z,21.30
2019-02-17T19:48:00.671Z,19.23
2019-02-17T19:50:33.069Z,18.53
2019-02-17T19:53:06.548Z,19.57
2019-02-17T19:55:38.937Z,18.73
2019-02-17T19:58:11.355Z,18.97
2019-02-17T20:00:43.737Z,24.10
2019-02-17T20:03:35.780Z,20.50
2019-02-17T20:06:08.187Z,23.67
2019-02-17T20:08:40.525Z,21.93
2019-02-17T20:11:12.913Z,19.17
2019-02-17T20:13:45.323Z,20.00
2019-02-17T20:16:17.699Z,21.73
2019-02-17T20:18:50.192Z,21.97
2019-02-17T20:21:22.605Z,21.97
2019-02-17T20:23:55.231Z,20.77
2019-02-17T20:26:27.639Z,20.37
2019-02-17T20:29:00.067Z,21.57
2019-02-17T20:31:32.503Z,21.40
2019-02-17T20:34:05.986Z,21.77
2019-02-17T20:36:38.383Z,23.00
2019-02-17T20:39:10.844Z,18.33
2019-02-17T20:41:43.233Z,20.13
2019-02-17T20:44:15.659Z,18.90
2019-02-17T20:46:48.057Z,18.93
2019-02-17T20:49:20.465Z,21.77
2019-02-17T20:51:52.850Z,21.60
2019-02-17T20:54:25.307Z,17.13
2019-02-17T20:56:57.733Z,19.57
2019-02-17T20:59:30.141Z,22.90
2019-02-17T21:02:02.529Z,21.00
2019-02-17T21:04:34.955Z,20.13
2019-02-17T21:07:07.345Z,18.17
2019-02-17T21:09:39.790Z,18.97
2019-02-17T21:12:12.209Z,16.63
2019-02-17T21:14:44.617Z,20.43
2019-02-17T21:17:17.040Z,17.20
2019-02-17T21:19:49.481Z,21.83
2019-02-17T21:22:21.879Z,19.60
2019-02-17T21:24:54.394Z,16.63
2019-02-17T21:27:26.900Z,19.70
2019-02-17T21:29:59.335Z,16.80
2019-02-17T21:32:31.731Z,20.57
2019-02-17T21:35:04.440Z,20.83
2019-02-17T21:37:36.898Z,21.50
2019-02-17T21:40:10.681Z,18.60
2019-02-17T21:42:43.083Z,16.90
2019-02-17T21:45:15.515Z,22.67
2019-02-17T21:47:47.897Z,20.10
2019-02-17T21:50:20.318Z,18.00
2019-02-17T21:52:52.779Z,16.77
2019-02-17T21:55:25.224Z,18.47
2019-02-17T21:57:57.675Z,16.27
2019-02-17T22:00:30.181Z,16.83
2019-02-17T22:03:02.569Z,20.30
2019-02-17T22:05:35.047Z,21.50
2019-02-17T22:08:08.293Z,29.60
2019-02-17T22:10:40.705Z,24.07
2019-02-17T22:13:13.181Z,19.90
2019-02-17T22:15:45.527Z,15.77
2019-02-17T22:18:17.928Z,19.63
2019-02-17T22:20:50.350Z,20.37
2019-02-17T22:23:22.735Z,21.17
2019-02-17T22:25:55.242Z,18.43
2019-02-17T22:28:27.702Z,19.37
2019-02-17T22:31:00.206Z,17.70
2019-02-17T22:33:32.605Z,17.90
2019-02-17T22:36:05.024Z,18.93
2019-02-17T22:38:37.407Z,18.70
2019-02-17T22:41:09.834Z,19.13
2019-02-17T22:43:42.281Z,22.13
2019-02-17T22:46:14.693Z,17.00
2019-02-17T22:48:47.067Z,16.70
2019-02-17T22:51:19.543Z,18.63
2019-02-17T22:53:51.939Z,22.30
2019-02-17T22:56:24.360Z,25.23
2019-02-17T22:58:56.759Z,19.83
2019-02-17T23:01:32.065Z,18.07
2019-02-17T23:04:04.521Z,22.77
2019-02-17T23:06:37.004Z,22.90
2019-02-17T23:09:09.531Z,20.37
2019-02-17T23:11:42.204Z,19.70
2019-02-17T23:14:14.670Z,16.33
2019-02-17T23:16:47.083Z,25.87
2019-02-17T23:19:19.484Z,22.10
2019-02-17T23:21:51.962Z,21.00
2019-02-17T23:24:24.396Z,24.57
2019-02-17T23:26:56.807Z,25.70
2019-02-17T23:29:29.226Z,23.90
2019-02-17T23:32:01.633Z,22.93
2019-02-17T23:34:34.018Z,20.93
2019-02-17T23:37:06.435Z,17.73
2019-02-17T23:39:38.807Z,20.63
2019-02-17T23:42:11.214Z,22.77
2019-02-17T23:44:43.593Z,20.07
2019-02-17T23:47:16.021Z,21.37
2019-02-17T23:49:48.425Z,20.43
2019-02-17T23:52:20.763Z,17.97
2019-02-17T23:54:53.149Z,17.67
2019-02-17T23:57:25.960Z,17.57
2019-02-17T23:59:59.417Z,16.97
